Time;durP1;ratioP1;P1;durP2;ratioP2;P2;SDS_P1;SDS_P2;PMS_P1;PMS_P2;Temp;Humidity;BMP_temperature;BMP_pressure;BME280_temperature;BME280_humidity;BME280_pressure;Samples;Min_cycle;Max_cycle;Signal;HPM_P1;HPM_P2
2023/11/09 00:01:16;;;;;;;13.15;6.05;;;;;;;0.30;100.00;96360.19;5038505;28;20037;-71
2023/11/09 00:03:41;;;;;;;15.15;7.38;;;;;;;0.23;100.00;96359.81;5032474;28;20048;-70
2023/11/09 00:06:07;;;;;;;18.48;7.40;;;;;;;-0.15;100.00;96365.59;5034081;28;20037;-71
2023/11/09 00:08:33;;;;;;;10.93;6.97;;;;;;;-0.21;100.00;96363.00;5040439;28;20523;-69
2023/11/09 00:10:59;;;;;;;11.27;6.60;;;;;;;-0.22;100.00;96355.25;5040140;28;20051;-68
2023/11/09 00:13:25;;;;;;;10.88;6.85;;;;;;;-0.38;100.00;96357.47;5035702;28;20538;-69
2023/11/09 00:15:51;;;;;;;12.40;6.50;;;;;;;-0.26;100.00;96356.97;5040276;28;20132;-70
2023/11/09 00:18:21;;;;;;;10.45;6.55;;;;;;;-0.21;100.00;96352.25;5033241;28;20041;-69
2023/11/09 00:20:53;;;;;;;11.45;5.88;;;;;;;-0.04;100.00;96350.78;5040671;28;20063;-69
2023/11/09 00:23:19;;;;;;;10.80;6.50;;;;;;;0.10;100.00;96340.72;5055225;28;20056;-68
2023/11/09 00:25:46;;;;;;;14.13;8.68;;;;;;;0.04;100.00;96336.59;5046398;28;20495;-68
2023/11/09 00:28:13;;;;;;;9.52;7.05;;;;;;;0.08;100.00;96339.47;5020447;28;20040;-68
2023/11/09 00:30:39;;;;;;;13.77;7.97;;;;;;;0.15;100.00;96332.53;5031987;28;20053;-69
2023/11/09 00:33:04;;;;;;;9.32;5.95;;;;;;;0.07;100.00;96340.56;5040191;28;20115;-68
2023/11/09 00:35:29;;;;;;;12.65;5.82;;;;;;;-0.07;100.00;96336.03;5042364;28;20053;-70
2023/11/09 00:37:55;;;;;;;10.68;5.82;;;;;;;-0.16;100.00;96337.06;5043280;28;20075;-68
2023/11/09 00:40:22;;;;;;;12.77;6.22;;;;;;;-0.24;100.00;96335.91;5034457;28;20816;-71
2023/11/09 00:42:47;;;;;;;9.60;5.78;;;;;;;-0.25;100.00;96337.81;5039756;28;20041;-69
2023/11/09 00:45:13;;;;;;;13.48;6.20;;;;;;;-0.43;100.00;96331.50;5024044;28;20033;-69
2023/11/09 00:47:40;;;;;;;9.77;6.07;;;;;;;-0.34;100.00;96339.66;5038914;28;20114;-70
2023/11/09 00:50:06;;;;;;;9.13;5.88;;;;;;;-0.37;100.00;96326.78;5040234;28;20102;-66
2023/11/09 00:52:31;;;;;;;10.48;6.45;;;;;;;-0.55;100.00;96328.56;5039540;28;20045;-69
2023/11/09 00:54:58;;;;;;;14.50;8.70;;;;;;;-0.70;100.00;96328.88;5038863;28;20459;-69
2023/11/09 00:57:25;;;;;;;12.18;6.85;;;;;;;-0.63;100.00;96334.63;5034533;28;20390;-68
2023/11/09 00:59:50;;;;;;;13.38;7.65;;;;;;;-0.46;100.00;96329.41;5040127;28;20048;-68
2023/11/09 01:02:16;;;;;;;11.70;6.70;;;;;;;-0.26;100.00;96330.03;5035371;28;20340;-68
2023/11/09 01:04:42;;;;;;;10.82;5.80;;;;;;;-0.17;100.00;96325.50;5038881;28;20522;-69
2023/11/09 01:07:09;;;;;;;8.13;5.97;;;;;;;-0.10;100.00;96323.19;5035409;28;20040;-67
2023/11/09 01:09:38;;;;;;;8.52;5.57;;;;;;;-0.23;100.00;96324.06;5039188;28;20139;-69
2023/11/09 01:12:05;;;;;;;12.98;6.03;;;;;;;-0.43;100.00;96312.66;5034981;28;20450;-69
2023/11/09 01:14:30;;;;;;;11.30;5.25;;;;;;;-0.66;100.00;96311.84;5039083;28;20123;-70
2023/11/09 01:16:55;;;;;;;9.88;6.00;;;;;;;-0.65;100.00;96313.44;5038513;28;20489;-67
2023/11/09 01:19:21;;;;;;;9.23;6.40;;;;;;;-0.50;100.00;96315.00;5033804;28;20041;-69
2023/11/09 01:21:46;;;;;;;10.27;6.05;;;;;;;-0.60;100.00;96307.13;5021466;28;20041;-70
2023/11/09 01:24:12;;;;;;;10.38;6.30;;;;;;;-0.75;100.00;96302.13;5034304;28;20039;-70
2023/11/09 01:26:37;;;;;;;10.85;6.13;;;;;;;-0.71;100.00;96297.72;5043507;28;20048;-70
2023/11/09 01:29:03;;;;;;;10.88;6.25;;;;;;;-0.36;100.00;96284.53;5054965;28;20056;-69
2023/11/09 01:31:28;;;;;;;9.82;5.40;;;;;;;-0.41;100.00;96290.84;5038296;28;20052;-70
2023/11/09 01:33:54;;;;;;;8.80;5.35;;;;;;;-0.63;100.00;96280.84;5039425;28;20059;-69
2023/11/09 01:36:19;;;;;;;10.55;5.55;;;;;;;-0.85;100.00;96285.09;5035452;28;20033;-70
2023/11/09 01:38:45;;;;;;;11.45;6.03;;;;;;;-0.60;100.00;96291.00;5041426;28;20444;-69
2023/11/09 01:41:10;;;;;;;12.40;7.25;;;;;;;-0.49;100.00;96294.25;5033795;28;20040;-69
2023/11/09 01:43:36;;;;;;;11.30;5.88;;;;;;;-0.58;100.00;96280.72;5039018;28;20437;-69
2023/11/09 01:46:04;;;;;;;8.18;5.25;;;;;;;-0.59;100.00;96279.94;5038708;28;20573;-69
2023/11/09 01:48:30;;;;;;;8.07;5.32;;;;;;;-0.49;100.00;96276.19;5020536;28;20041;-69
2023/11/09 01:50:55;;;;;;;8.73;5.65;;;;;;;-0.44;100.00;96272.63;5038589;28;20037;-68
2023/11/09 01:53:21;;;;;;;8.43;5.20;;;;;;;-0.39;100.00;96269.81;5033431;28;20033;-69
2023/11/09 01:55:46;;;;;;;11.43;5.80;;;;;;;-0.45;100.00;96266.44;5023145;28;20033;-69
2023/11/09 01:58:13;;;;;;;10.07;5.30;;;;;;;-0.65;100.00;96265.03;5034988;28;20136;-69
2023/11/09 02:00:42;;;;;;;9.55;5.57;;;;;;;-0.56;100.00;96265.06;5038883;28;20044;-69
2023/11/09 02:03:07;;;;;;;7.78;5.32;;;;;;;-0.50;100.00;96263.09;5033086;28;20037;-69
2023/11/09 02:05:35;;;;;;;9.98;5.28;;;;;;;-0.49;100.00;96270.81;5028503;28;20056;-71
2023/11/09 02:08:01;;;;;;;9.20;5.57;;;;;;;-0.51;100.00;96264.16;5043655;28;20037;-71
2023/11/09 02:10:29;;;;;;;10.45;5.80;;;;;;;-0.73;100.00;96259.59;5019973;28;20203;-71
2023/11/09 02:12:54;;;;;;;7.53;5.43;;;;;;;-0.68;100.00;96257.56;5042004;28;20124;-69
2023/11/09 02:15:20;;;;;;;11.80;5.75;;;;;;;-0.63;100.00;96267.41;5038166;28;20183;-69
2023/11/09 02:17:46;;;;;;;9.02;5.68;;;;;;;-0.66;100.00;96251.88;5042620;28;20048;-70
2023/11/09 02:20:15;;;;;;;8.00;4.82;;;;;;;-0.87;100.00;96246.97;5044029;28;20049;-69
2023/11/09 02:22:45;;;;;;;14.32;5.50;;;;;;;-0.73;100.00;96238.84;5042671;28;20511;-70
2023/11/09 02:25:11;;;;;;;10.73;5.82;;;;;;;-0.96;100.00;96229.97;5011109;28;20059;-71
2023/11/09 02:27:36;;;;;;;8.80;5.95;;;;;;;-0.64;100.00;96226.25;5042252;28;20041;-70
2023/11/09 02:30:02;;;;;;;10.02;6.10;;;;;;;-0.74;100.00;96228.41;5040892;28;20113;-68
2023/11/09 02:32:28;;;;;;;11.15;5.10;;;;;;;-0.69;100.00;96221.00;5038619;28;20127;-69
2023/11/09 02:34:53;;;;;;;8.38;5.10;;;;;;;-0.85;100.00;96220.56;5044500;28;20440;-70
2023/11/09 02:37:21;;;;;;;11.63;5.90;;;;;;;-0.71;100.00;96219.72;5040605;28;20047;-69
2023/11/09 02:39:51;;;;;;;6.95;4.82;;;;;;;-0.74;100.00;96214.94;5044840;28;20041;-69
2023/11/09 02:42:17;;;;;;;9.82;5.50;;;;;;;-0.67;100.00;96218.00;5038199;28;20055;-70
2023/11/09 02:44:42;;;;;;;8.95;5.22;;;;;;;-0.74;100.00;96213.03;5042417;28;20507;-69
2023/11/09 02:47:07;;;;;;;10.32;5.03;;;;;;;-0.76;100.00;96204.50;5037626;28;20091;-70
2023/11/09 02:49:33;;;;;;;7.75;4.88;;;;;;;-0.86;100.00;96204.75;5042848;28;20057;-70
2023/11/09 02:51:58;;;;;;;8.32;5.50;;;;;;;-0.66;100.00;96198.88;5040712;28;20041;-70
2023/11/09 02:54:26;;;;;;;9.85;5.63;;;;;;;-0.86;100.00;96191.31;5037272;28;20630;-70
2023/11/09 02:56:51;;;;;;;8.13;5.22;;;;;;;-0.89;100.00;96190.00;5025744;28;20037;-71
2023/11/09 02:59:16;;;;;;;11.45;5.20;;;;;;;-0.67;100.00;96174.97;5037575;28;20082;-69
2023/11/09 03:01:42;;;;;;;7.13;4.88;;;;;;;-0.52;100.00;96171.91;5041439;28;20041;-70
2023/11/09 03:04:07;;;;;;;6.68;4.72;;;;;;;-0.50;100.00;96177.00;5036134;28;20041;-70
2023/11/09 03:06:33;;;;;;;7.65;5.18;;;;;;;-0.57;100.00;96163.97;5041450;28;20041;-69
2023/11/09 03:09:00;;;;;;;7.70;4.80;;;;;;;-0.52;100.00;96171.09;5042133;28;20139;-69
2023/11/09 03:11:26;;;;;;;7.75;5.00;;;;;;;-0.50;100.00;96171.63;5036173;28;20055;-69
2023/11/09 03:13:51;;;;;;;10.27;5.50;;;;;;;-0.59;100.00;96155.41;5041309;28;20555;-69
2023/11/09 03:16:17;;;;;;;10.13;5.05;;;;;;;-0.64;100.00;96156.34;5034940;28;20051;-69
2023/11/09 03:18:42;;;;;;;7.32;4.47;;;;;;;-0.60;100.00;96153.81;5022585;28;20561;-69
2023/11/09 03:21:11;;;;;;;9.98;4.82;;;;;;;-0.56;100.00;96145.94;5035701;28;20036;-70
2023/11/09 03:23:37;;;;;;;6.05;4.68;;;;;;;-0.63;100.00;96146.34;5040785;28;20064;-70
2023/11/09 03:26:03;;;;;;;7.50;4.85;;;;;;;-0.96;100.00;96152.78;5040481;28;20388;-68
2023/11/09 03:28:28;;;;;;;7.10;4.40;;;;;;;-0.81;100.00;96148.16;5039992;28;20384;-70
2023/11/09 03:30:55;;;;;;;7.20;4.55;;;;;;;-0.84;100.00;96143.41;5041360;28;20037;-67
2023/11/09 03:33:20;;;;;;;7.25;4.43;;;;;;;-0.99;100.00;96145.34;5035462;28;20045;-69
2023/11/09 03:35:46;;;;;;;7.57;4.95;;;;;;;-1.16;100.00;96140.63;5040644;28;20041;-69
2023/11/09 03:38:11;;;;;;;8.43;5.40;;;;;;;-1.22;100.00;96133.78;5044580;28;20064;-69
2023/11/09 03:40:36;;;;;;;12.57;4.93;;;;;;;-1.38;100.00;96125.28;5044207;28;20083;-69
2023/11/09 03:43:02;;;;;;;10.95;5.38;;;;;;;-1.28;100.00;96132.31;5023409;28;20148;-66
2023/11/09 03:45:27;;;;;;;9.40;4.93;;;;;;;-1.05;100.00;96113.53;5022490;28;20041;-69
2023/11/09 03:47:53;;;;;;;9.30;5.32;;;;;;;-0.83;100.00;96108.16;5054244;28;20104;-68
2023/11/09 03:50:19;;;;;;;8.07;5.40;;;;;;;-0.67;100.00;96111.22;5043550;28;20471;-70
2023/11/09 03:52:45;;;;;;;10.38;4.85;;;;;;;-0.67;100.00;96108.53;5041181;28;20045;-70
2023/11/09 03:55:11;;;;;;;10.23;5.25;;;;;;;-0.63;100.00;96109.50;5035441;28;20040;-71
2023/11/09 03:57:38;;;;;;;6.95;4.68;;;;;;;-0.59;100.00;96097.03;5040292;28;20045;-69
2023/11/09 04:00:13;;;;;;;6.05;4.38;;;;;;;-0.51;100.00;96097.38;5037214;28;20055;-68
2023/11/09 04:02:41;;;;;;;10.32;4.93;;;;;;;-0.52;100.00;96104.66;5031406;28;20063;-69
2023/11/09 04:05:11;;;;;;;7.13;4.80;;;;;;;-0.42;100.00;96100.91;5036347;28;20045;-70
2023/11/09 04:07:43;;;;;;;7.97;4.93;;;;;;;-0.45;100.00;96102.31;5042451;28;20076;-69
2023/11/09 04:10:09;;;;;;;9.00;5.25;;;;;;;-0.65;100.00;96090.22;5037851;28;20132;-69
2023/11/09 04:12:36;;;;;;;7.47;4.82;;;;;;;-0.57;100.00;96090.56;5040745;28;20057;-70
2023/11/09 04:15:04;;;;;;;12.32;5.00;;;;;;;-0.52;100.00;96085.03;5039947;28;20029;-69
2023/11/09 04:17:31;;;;;;;8.02;5.03;;;;;;;-0.35;100.00;96081.63;5040019;28;20494;-69
2023/11/09 04:19:56;;;;;;;7.43;5.05;;;;;;;-0.38;100.00;96077.63;5030008;28;20041;-70
2023/11/09 04:22:22;;;;;;;8.43;4.82;;;;;;;-0.28;100.00;96073.88;5035170;28;20053;-69
2023/11/09 04:24:47;;;;;;;12.52;5.28;;;;;;;-0.27;100.00;96073.59;5039694;28;20056;-68
2023/11/09 04:27:13;;;;;;;7.30;4.93;;;;;;;-0.36;100.00;96072.75;5035222;28;20515;-70
2023/11/09 04:29:38;;;;;;;8.77;5.20;;;;;;;-0.72;100.00;96071.03;5039408;28;20089;-68
2023/11/09 04:32:04;;;;;;;10.77;5.82;;;;;;;-0.73;100.00;96072.13;5035687;28;20144;-69
2023/11/09 04:34:32;;;;;;;10.45;5.05;;;;;;;-0.65;100.00;96076.75;5039617;28;20524;-69
2023/11/09 04:36:59;;;;;;;10.65;5.88;;;;;;;-0.61;100.00;96071.56;5040481;28;20037;-70
2023/11/09 04:39:28;;;;;;;8.65;5.65;;;;;;;-0.64;100.00;96064.09;5035142;28;20496;-70
2023/11/09 04:42:04;;;;;;;8.77;5.90;;;;;;;-0.50;100.00;96069.38;5025080;28;20105;-70
2023/11/09 04:44:29;;;;;;;11.68;5.10;;;;;;;-0.46;100.00;96081.09;5040326;28;20797;-70
2023/11/09 04:46:57;;;;;;;8.95;5.13;;;;;;;-0.42;100.00;96074.00;5039969;28;20036;-70
2023/11/09 04:49:23;;;;;;;10.10;5.68;;;;;;;-0.32;100.00;96081.78;5035292;28;20056;-70
2023/11/09 04:51:51;;;;;;;9.32;5.68;;;;;;;-0.29;100.00;96080.38;5040287;28;20040;-69
2023/11/09 04:54:19;;;;;;;7.03;4.97;;;;;;;-0.39;100.00;96076.06;5017463;28;20033;-69
2023/11/09 05:07:29;;;;;;;9.93;5.53;;;;;;;-0.37;100.00;96065.00;5032452;28;20068;-70
2023/11/09 05:09:54;;;;;;;10.52;5.50;;;;;;;-0.42;100.00;96060.53;5032469;28;20132;-70
2023/11/09 05:12:20;;;;;;;13.52;5.60;;;;;;;-0.47;100.00;96058.78;5031018;28;20441;-70
2023/11/09 05:14:46;;;;;;;11.05;5.38;;;;;;;-0.49;100.00;96057.50;5035810;28;20094;-70
2023/11/09 05:17:15;;;;;;;9.30;5.60;;;;;;;-0.55;100.00;96051.47;5040225;28;20041;-69
2023/11/09 05:19:44;;;;;;;9.98;5.80;;;;;;;-0.62;100.00;96059.97;5038898;28;20041;-69
2023/11/09 05:22:10;;;;;;;10.10;5.80;;;;;;;-0.77;100.00;96055.81;4999469;28;20119;-71
2023/11/09 05:24:37;;;;;;;10.10;5.70;;;;;;;-0.97;100.00;96053.66;5035406;28;20484;-70
2023/11/09 05:27:03;;;;;;;12.57;6.05;;;;;;;-1.12;100.00;96054.03;5037305;28;20415;-70
2023/11/09 05:29:31;;;;;;;10.95;5.53;;;;;;;-1.26;100.00;96051.41;5038617;28;20132;-70
2023/11/09 05:31:57;;;;;;;12.23;5.88;;;;;;;-1.37;100.00;96054.34;5025033;28;20457;-71
2023/11/09 05:34:22;;;;;;;8.43;5.50;;;;;;;-1.36;100.00;96052.44;5035867;28;20623;-69
2023/11/09 05:36:48;;;;;;;11.57;5.60;;;;;;;-1.39;100.00;96053.88;5039705;28;20047;-70
2023/11/09 05:39:14;;;;;;;14.50;6.25;;;;;;;-1.44;100.00;96045.13;5025535;28;20044;-70
2023/11/09 05:41:40;;;;;;;11.77;7.03;;;;;;;-1.63;100.00;96053.38;5041970;28;20037;-69
2023/11/09 05:44:07;;;;;;;10.80;6.85;;;;;;;-1.65;100.00;96050.19;5038842;28;20131;-69
2023/11/09 05:46:32;;;;;;;11.90;6.13;;;;;;;-1.63;100.00;96058.72;5046252;28;20484;-69
2023/11/09 05:48:58;;;;;;;10.27;6.55;;;;;;;-1.32;100.00;96064.16;5043010;28;20102;-69
2023/11/09 05:51:23;;;;;;;13.57;6.80;;;;;;;-1.18;100.00;96064.13;5036799;28;20326;-71
2023/11/09 05:53:51;;;;;;;13.88;7.07;;;;;;;-1.06;100.00;96071.59;5043133;28;20484;-72
2023/11/09 05:56:17;;;;;;;10.10;6.22;;;;;;;-1.09;100.00;96059.59;5038155;28;20037;-71
2023/11/09 05:58:43;;;;;;;14.27;7.60;;;;;;;-1.46;100.00;96064.25;5030244;28;20483;-70
2023/11/09 06:01:10;;;;;;;14.15;7.90;;;;;;;-1.70;100.00;96061.03;5038630;28;20488;-71
2023/11/09 06:03:35;;;;;;;13.95;7.38;;;;;;;-1.78;100.00;96055.28;5043309;28;20552;-70
2023/11/09 06:06:01;;;;;;;14.93;7.78;;;;;;;-1.57;100.00;96055.63;5026291;28;20047;-69
2023/11/09 06:08:27;;;;;;;9.43;6.60;;;;;;;-1.29;100.00;96054.72;5039101;28;20045;-71
2023/11/09 06:10:53;;;;;;;15.15;7.57;;;;;;;-1.11;100.00;96055.63;5042434;28;20041;-72
2023/11/09 06:13:18;;;;;;;12.75;6.97;;;;;;;-1.09;100.00;96064.19;5054432;28;20045;-71
2023/11/09 06:15:44;;;;;;;14.20;7.05;;;;;;;-1.19;100.00;96067.88;5051126;28;20045;-70
2023/11/09 06:18:13;;;;;;;16.02;6.63;;;;;;;-1.29;100.00;96074.31;5035588;28;20411;-70
2023/11/09 06:20:38;;;;;;;12.85;6.63;;;;;;;-1.19;100.00;96071.38;5042421;28;20131;-70
2023/11/09 06:23:05;;;;;;;19.23;7.90;;;;;;;-1.17;100.00;96071.06;5040700;28;20124;-70
2023/11/09 06:25:30;;;;;;;17.20;7.35;;;;;;;-0.87;100.00;96076.78;5041452;28;20425;-71
2023/11/09 06:27:56;;;;;;;15.55;7.55;;;;;;;-0.76;100.00;96080.78;5042011;28;20143;-70
2023/11/09 06:30:21;;;;;;;12.57;7.43;;;;;;;-0.78;100.00;96080.31;5036684;28;20233;-71
2023/11/09 06:32:48;;;;;;;13.48;7.63;;;;;;;-0.70;100.00;96084.16;5042909;28;20033;-71
2023/11/09 06:35:13;;;;;;;13.23;7.50;;;;;;;-0.54;100.00;96074.59;5036984;28;20044;-69
2023/11/09 06:37:42;;;;;;;13.88;8.23;;;;;;;-0.48;100.00;96078.72;5042092;28;20041;-71
2023/11/09 06:40:10;;;;;;;11.63;7.05;;;;;;;-0.47;100.00;96085.69;5044069;28;20052;-69
2023/11/09 06:42:38;;;;;;;12.70;7.23;;;;;;;-0.27;100.00;96081.66;5041177;28;20103;-70
2023/11/09 06:45:04;;;;;;;11.32;6.25;;;;;;;-0.21;100.00;96096.53;5037693;28;20037;-70
2023/11/09 06:47:30;;;;;;;11.15;5.85;;;;;;;-0.07;100.00;96109.13;5047505;28;20065;-70
2023/11/09 06:49:58;;;;;;;12.45;5.47;;;;;;;0.12;100.00;96106.13;5042519;28;20053;-70
2023/11/09 06:52:24;;;;;;;9.65;5.90;;;;;;;0.22;100.00;96108.53;5037424;28;20514;-71
2023/11/09 06:54:50;;;;;;;11.30;5.70;;;;;;;0.24;100.00;96106.31;5044501;28;20131;-71
2023/11/09 06:57:15;;;;;;;9.85;5.68;;;;;;;0.27;100.00;96103.00;5036848;28;20090;-70
2023/11/09 06:59:41;;;;;;;10.48;6.20;;;;;;;0.32;100.00;96107.44;5041282;28;20127;-71
2023/11/09 07:02:07;;;;;;;9.70;6.05;;;;;;;0.50;100.00;96106.34;5028709;28;20057;-71
2023/11/09 07:04:33;;;;;;;10.90;5.88;;;;;;;0.68;100.00;96115.22;5042202;28;20052;-71
2023/11/09 07:06:58;;;;;;;9.60;5.60;;;;;;;0.53;100.00;96107.63;5035837;28;20040;-71
2023/11/09 07:09:24;;;;;;;10.95;5.63;;;;;;;0.53;100.00;96111.13;5035737;28;20099;-71
2023/11/09 07:11:52;;;;;;;11.18;5.68;;;;;;;0.82;100.00;96115.09;5042284;28;20076;-71
2023/11/09 07:14:23;;;;;;;8.77;5.57;;;;;;;1.12;100.00;96107.94;5036684;28;20866;-71
2023/11/09 07:16:49;;;;;;;15.27;5.75;;;;;;;1.38;100.00;96115.16;5041974;28;20048;-70
2023/11/09 07:19:15;;;;;;;15.63;6.80;;;;;;;1.65;100.00;96102.38;5026938;28;20587;-71
2023/11/09 07:21:40;;;;;;;9.02;6.22;;;;;;;1.84;100.00;96100.09;5039868;28;20055;-71
2023/11/09 07:24:06;;;;;;;9.48;5.03;;;;;;;1.89;100.00;96105.31;5036010;28;20032;-70
2023/11/09 07:26:32;;;;;;;8.75;5.97;;;;;;;1.87;100.00;96104.84;5044103;28;20099;-71
2023/11/09 07:28:57;;;;;;;11.88;5.82;;;;;;;2.04;100.00;96105.88;5049142;28;20044;-70
2023/11/09 07:31:23;;;;;;;11.85;5.78;;;;;;;2.35;100.00;96110.16;5028686;28;20419;-71
2023/11/09 07:33:49;;;;;;;11.68;5.47;;;;;;;2.63;100.00;96110.47;5044396;28;20049;-71
2023/11/09 07:36:18;;;;;;;9.57;5.40;;;;;;;2.78;100.00;96104.44;5035973;28;20045;-71
2023/11/09 07:38:44;;;;;;;8.47;4.97;;;;;;;3.14;100.00;96116.53;5040873;28;20049;-70
2023/11/09 07:41:09;;;;;;;10.20;4.65;;;;;;;3.49;100.00;96120.81;5035670;28;20052;-71
2023/11/09 07:43:35;;;;;;;7.50;4.32;;;;;;;3.78;100.00;96131.50;5040428;28;20044;-70
2023/11/09 07:46:01;;;;;;;6.70;4.60;;;;;;;3.51;100.00;96137.53;5038714;28;20041;-71
2023/11/09 07:48:27;;;;;;;21.67;7.28;;;;;;;3.80;100.00;96139.31;5039906;28;20100;-69
2023/11/09 07:50:53;;;;;;;18.83;8.73;;;;;;;3.78;100.00;96144.25;5045675;28;20063;-69
2023/11/09 07:53:22;;;;;;;20.08;11.25;;;;;;;3.51;100.00;96145.66;5036268;28;20041;-70
2023/11/09 07:55:50;;;;;;;30.08;10.48;;;;;;;3.36;100.00;96144.38;5039912;28;20037;-69
2023/11/09 07:58:17;;;;;;;19.77;8.07;;;;;;;3.74;100.00;96149.53;5035567;28;20443;-70
2023/11/09 08:00:43;;;;;;;43.35;16.17;;;;;;;4.13;100.00;96149.28;5040276;28;20037;-70
2023/11/09 08:03:09;;;;;;;31.80;12.98;;;;;;;4.41;100.00;96143.94;5033589;28;20155;-70
2023/11/09 08:05:41;;;;;;;11.38;6.45;;;;;;;4.72;100.00;96143.34;5040193;28;20107;-70
2023/11/09 08:08:10;;;;;;;14.00;6.88;;;;;;;4.78;100.00;96146.63;5019568;28;20412;-70
2023/11/09 08:10:37;;;;;;;14.50;8.45;;;;;;;4.30;100.00;96159.09;5040617;28;20036;-70
2023/11/09 08:13:03;;;;;;;14.43;7.10;;;;;;;4.39;100.00;96165.19;5039317;28;20033;-70
2023/11/09 08:15:28;;;;;;;13.35;8.00;;;;;;;4.33;100.00;96153.78;5037599;28;20041;-70
2023/11/09 08:17:53;;;;;;;20.30;7.70;;;;;;;4.38;100.00;96164.41;5039510;28;20404;-70
2023/11/09 08:20:19;;;;;;;14.85;7.43;;;;;;;3.92;100.00;96152.06;5032244;28;20079;-69
2023/11/09 08:22:46;;;;;;;14.60;8.10;;;;;;;3.94;100.00;96147.91;5040406;28;20037;-70
2023/11/09 08:25:15;;;;;;;22.52;13.52;;;;;;;4.00;100.00;96159.31;5017124;28;20059;-69
2023/11/09 08:27:42;;;;;;;15.65;10.38;;;;;;;4.16;100.00;96154.00;5041162;28;20041;-71
2023/11/09 08:30:11;;;;;;;22.35;9.95;;;;;;;4.43;100.00;96146.31;5045851;28;20044;-69
2023/11/09 08:32:37;;;;;;;;;;;;;;;4.89;100.00;96155.84;5051357;28;20072;-70
2023/11/09 08:35:09;;;;;;;25.55;11.65;;;;;;;5.03;100.00;96157.41;5038281;28;19967;-70
2023/11/09 08:37:38;;;;;;;25.77;10.10;;;;;;;5.05;100.00;96152.44;5046152;28;20101;-70
2023/11/09 08:40:09;;;;;;;26.90;14.30;;;;;;;4.82;100.00;96146.72;5038257;28;20187;-70
2023/11/09 08:42:36;;;;;;;12.82;8.88;;;;;;;4.75;100.00;96144.59;5038954;28;20068;-70
2023/11/09 08:45:04;;;;;;;17.65;9.23;;;;;;;4.37;100.00;96143.03;5037566;28;20071;-69
2023/11/09 08:47:29;;;;;;;19.67;10.75;;;;;;;4.24;100.00;96141.47;5040452;28;20617;-70
2023/11/09 08:49:55;;;;;;;18.77;11.10;;;;;;;4.10;100.00;96137.16;5037029;28;20428;-71
2023/11/09 08:52:23;;;;;;;19.42;11.35;;;;;;;4.28;100.00;96134.25;5035357;28;20060;-70
2023/11/09 08:54:52;;;;;;;19.40;11.07;;;;;;;4.56;100.00;96132.41;5039041;28;20095;-71
2023/11/09 08:57:18;;;;;;;14.55;9.68;;;;;;;4.95;100.00;96137.41;5033717;28;20043;-70
2023/11/09 08:59:43;;;;;;;16.58;9.60;;;;;;;5.17;100.00;96139.63;5025952;28;20045;-70
2023/11/09 09:02:09;;;;;;;13.20;9.43;;;;;;;5.55;100.00;96138.31;5034282;28;20673;-69
2023/11/09 09:04:35;;;;;;;18.10;9.05;;;;;;;5.52;100.00;96136.28;5039910;28;20045;-70
2023/11/09 09:07:01;;;;;;;18.40;9.63;;;;;;;5.93;100.00;96133.47;5039630;28;20052;-70
2023/11/09 09:09:26;;;;;;;17.05;9.52;;;;;;;6.26;100.00;96143.22;5034735;28;20037;-70
2023/11/09 09:11:52;;;;;;;16.20;9.75;;;;;;;6.50;100.00;96143.03;5040466;28;20036;-70
2023/11/09 09:14:18;;;;;;;15.40;9.68;;;;;;;6.37;100.00;96138.81;5016627;28;20128;-70
2023/11/09 09:16:44;;;;;;;16.05;10.10;;;;;;;6.71;100.00;96141.91;5027585;28;20252;-71
2023/11/09 09:19:09;;;;;;;20.20;9.18;;;;;;;7.10;100.00;96130.31;5033437;28;20167;-71
2023/11/09 09:21:36;;;;;;;15.57;10.65;;;;;;;7.23;100.00;96131.72;5039065;28;20391;-70
2023/11/09 09:24:03;;;;;;;16.45;10.90;;;;;;;7.30;100.00;96142.78;5037818;28;20048;-72
2023/11/09 09:26:30;;;;;;;15.52;9.35;;;;;;;7.15;100.00;96143.63;5036131;28;20044;-70
2023/11/09 09:28:55;;;;;;;14.18;9.63;;;;;;;6.21;100.00;96135.31;5037948;28;20128;-70
2023/11/09 09:31:23;;;;;;;13.25;9.73;;;;;;;6.29;100.00;96126.97;5033648;28;20381;-69
2023/11/09 09:34:07;;;;;;;15.02;9.38;;;;;;;7.04;100.00;96132.50;5038789;28;20604;-69
2023/11/09 09:36:34;;;;;;;12.45;8.48;;;;;;;7.77;100.00;96133.53;5039226;28;20040;-71
2023/11/09 09:38:59;;;;;;;12.73;8.32;;;;;;;8.17;100.00;96132.25;5038554;28;20040;-70
2023/11/09 09:41:28;;;;;;;10.13;6.90;;;;;;;8.18;100.00;96131.13;5034296;28;20033;-70
2023/11/09 09:43:57;;;;;;;9.63;6.38;;;;;;;8.07;100.00;96132.91;5032124;28;20041;-70
2023/11/09 09:46:24;;;;;;;10.00;6.07;;;;;;;8.18;100.00;96131.13;5033208;28;20927;-69
2023/11/09 09:48:53;;;;;;;9.57;6.63;;;;;;;7.85;100.00;96124.34;5047886;28;20048;-70
2023/11/09 09:51:21;;;;;;;9.55;5.60;;;;;;;7.75;100.00;96129.59;5055831;28;20128;-70
2023/11/09 09:53:48;;;;;;;9.10;5.72;;;;;;;6.98;100.00;96114.88;5054247;28;20044;-71
2023/11/09 09:56:16;;;;;;;9.55;5.80;;;;;;;6.89;100.00;96109.66;5042666;28;20049;-71
2023/11/09 09:58:43;;;;;;;7.93;6.40;;;;;;;7.10;100.00;96106.59;5038714;28;20052;-71
2023/11/09 10:01:10;;;;;;;14.52;6.25;;;;;;;7.36;100.00;96099.69;5034896;28;20139;-71
2023/11/09 10:03:37;;;;;;;11.90;5.97;;;;;;;7.47;100.00;96097.94;5039012;28;20085;-72
2023/11/09 10:06:06;;;;;;;9.45;5.00;;;;;;;7.83;100.00;96091.22;5036040;28;20175;-72
2023/11/09 10:08:32;;;;;;;10.27;4.82;;;;;;;7.63;100.00;96093.19;5043580;28;20082;-73
2023/11/09 10:10:58;;;;;;;8.02;4.80;;;;;;;8.17;100.00;96099.53;5042963;28;20437;-72
2023/11/09 10:13:27;;;;;;;9.73;4.30;;;;;;;8.67;100.00;96094.06;5023492;28;20268;-71
2023/11/09 10:15:57;;;;;;;7.03;3.90;;;;;;;9.12;100.00;96100.50;5038895;28;20186;-71
2023/11/09 10:18:31;;;;;;;6.57;3.92;;;;;;;9.21;99.83;96099.44;5016540;28;20791;-73
2023/11/09 10:20:58;;;;;;;6.00;3.60;;;;;;;9.45;97.79;96101.66;5024634;28;20052;-71
2023/11/09 10:23:28;;;;;;;9.25;4.30;;;;;;;9.67;96.19;96093.69;5015169;28;20041;-72
2023/11/09 10:25:59;;;;;;;5.10;3.67;;;;;;;9.93;94.47;96099.03;5038364;28;20044;-72
2023/11/09 10:28:32;;;;;;;6.60;3.10;;;;;;;10.17;92.06;96098.84;5023571;28;20041;-70
2023/11/09 10:30:57;;;;;;;5.82;3.60;;;;;;;10.37;89.98;96113.09;5032027;28;20579;-71
2023/11/09 10:33:23;;;;;;;6.60;3.33;;;;;;;10.50;86.99;96106.19;5038356;28;20048;-69
2023/11/09 10:35:49;;;;;;;7.30;3.45;;;;;;;11.05;84.37;96099.84;5044809;28;20436;-70
2023/11/09 10:38:20;;;;;;;5.90;3.33;;;;;;;11.11;82.43;96098.31;5025585;28;20052;-70
2023/11/09 10:40:47;;;;;;;8.25;4.18;;;;;;;11.09;80.96;96097.88;5042892;28;20120;-71
2023/11/09 10:43:14;;;;;;;5.60;3.60;;;;;;;10.75;86.69;96095.38;5037006;28;20090;-70
2023/11/09 10:45:46;;;;;;;5.78;3.85;;;;;;;10.66;85.76;96084.78;5041994;28;20044;-71
2023/11/09 10:48:22;;;;;;;7.95;5.28;;;;;;;10.75;83.75;96073.47;5033536;28;20075;-71
2023/11/09 10:50:50;;;;;;;8.05;2.55;;;;;;;11.01;79.28;96077.13;5041035;28;20110;-71
2023/11/09 10:53:18;;;;;;;7.30;3.15;;;;;;;11.16;76.31;96077.97;5037298;28;20574;-71
2023/11/09 10:55:59;;;;;;;3.88;2.72;;;;;;;11.29;76.63;96069.00;5041214;28;20094;-70
2023/11/09 10:58:26;;;;;;;4.53;2.13;;;;;;;11.86;74.59;96062.06;5037320;28;20418;-72
2023/11/09 11:00:58;;;;;;;2.22;1.50;;;;;;;12.36;68.25;96064.84;5027803;28;20059;-71
2023/11/09 11:03:54;;;;;;;4.90;1.65;;;;;;;12.48;66.26;96066.44;5036428;28;20419;-70
2023/11/09 11:06:36;;;;;;;4.70;1.85;;;;;;;13.15;63.39;96061.16;5035900;28;20040;-70
2023/11/09 11:09:08;;;;;;;4.32;1.95;;;;;;;13.75;62.23;96073.81;5039810;28;20047;-71
2023/11/09 11:11:34;;;;;;;5.03;2.13;;;;;;;14.18;60.65;96061.72;5033116;28;20078;-71
2023/11/09 11:14:05;;;;;;;4.72;2.50;;;;;;;14.39;59.89;96062.75;5041387;28;20073;-71
2023/11/09 11:16:46;;;;;;;5.18;2.40;;;;;;;14.15;57.60;96052.31;5032866;28;20044;-70
2023/11/09 11:19:34;;;;;;;6.53;2.10;;;;;;;14.06;56.73;96064.97;5036520;28;20044;-70
2023/11/09 11:22:22;;;;;;;5.95;2.53;;;;;;;13.65;58.19;96060.94;5034891;28;20142;-71
2023/11/09 11:25:30;;;;;;;4.20;2.00;;;;;;;13.63;58.42;96054.25;5036224;28;20055;-69
2023/11/09 11:27:56;;;;;;;4.90;2.08;;;;;;;13.65;58.54;96051.88;5030760;28;20068;-71
2023/11/09 11:30:39;;;;;;;4.43;2.20;;;;;;;13.48;59.80;96048.81;5036413;28;20453;-70
2023/11/09 11:33:13;;;;;;;4.68;2.30;;;;;;;13.34;59.16;96044.19;5036357;28;20570;-70
2023/11/09 11:35:43;;;;;;;3.78;2.30;;;;;;;13.17;60.54;96045.03;5040842;28;20584;-69